Larroque, Argentina
Current Conditions -  °F | °C
As of 5:00 PM on Thursday 18 Dec 2014 (Local Time) from SADF Reporting Station
Scattered Clouds Scattered Clouds  
Wind Chill: 90°   Ceiling: Unl
Heat Index: 90°   Visibility: 6mi
Dew Point: 54°   Wind: 10mph
Humidity: 29%   Direction: 290°WNW
Pressure: 29.74"   Gusts: NA
Location:  33.03°S, 59.02°W
Report Text: SADF 182000Z 29009KT 270V360 9999 FEW030TCU SCT032 32/12 Q1007
Loading
Personal Weather Stations






























Interactive Weather Map New forecast layout! Learn more

10-Day Weather Forecast

Advertisements
Track Severe Weather on mobile